Time;durP1;ratioP1;P1;durP2;ratioP2;P2;SDS_P1;SDS_P2;PMS_P1;PMS_P2;Temp;Humidity;BMP_temperature;BMP_pressure;BME280_temperature;BME280_humidity;BME280_pressure;Samples;Min_cycle;Max_cycle;Signal;HPM_P1;HPM_P2
2022/01/06 00:00:02;;;;;;;;;;;;;;;5.56;63.41;101054.25;4951708;29;20033;-86
2022/01/06 00:02:29;;;;;;;;;;;;;;;5.62;63.62;101053.16;4935155;29;19946;-86
2022/01/06 00:04:54;;;;;;;;;;;;;;;5.62;63.20;101047.97;4935198;29;19940;-86
2022/01/06 00:07:20;;;;;;;;;;;;;;;5.69;64.33;101052.06;4933816;29;20380;-86
2022/01/06 00:09:47;;;;;;;;;;;;;;;5.70;64.18;101053.72;4936013;29;19939;-86
2022/01/06 00:12:15;;;;;;;;;;;;;;;5.67;63.53;101049.50;4935372;29;19952;-87
2022/01/06 00:25:14;;;;;;;;;;;;;;;5.39;62.62;101033.16;4936297;29;20317;-86
2022/01/06 00:27:39;;;;;;;;;;;;;;;5.27;62.68;101029.25;4937559;29;19939;-86
2022/01/06 00:30:05;;;;;;;;;;;;;;;5.16;62.09;101024.44;4938318;29;20299;-86
2022/01/06 00:32:30;;;;;;;;;;;;;;;5.07;64.09;101028.19;4938578;29;20012;-86
2022/01/06 00:34:55;;;;;;;;;;;;;;;5.26;63.39;101024.97;4938585;29;20372;-86
2022/01/06 00:37:20;;;;;;;;;;;;;;;5.32;63.51;101025.59;4938366;29;19957;-86
2022/01/06 00:39:46;;;;;;;;;;;;;;;5.31;63.12;101029.09;4951276;29;19936;-86
2022/01/06 00:42:11;;;;;;;;;;;;;;;5.29;63.83;101030.03;4957260;29;20051;-86
2022/01/06 00:44:36;;;;;;;;;;;;;;;5.33;63.86;101029.91;4957486;29;19933;-86
2022/01/06 00:47:01;;;;;;;;;;;;;;;5.37;63.68;101025.41;4955994;29;20035;-85
2022/01/06 00:49:27;;;;;;;;;;;;;;;5.38;63.45;101013.25;4957148;29;19936;-86
2022/01/06 00:51:52;;;;;;;;;;;;;;;5.34;63.54;101015.97;4956033;29;19952;-86
2022/01/06 00:54:17;;;;;;;;;;;;;;;5.38;64.05;101011.50;4955632;29;20069;-86
2022/01/06 00:56:43;;;;;;;;;;;;;;;5.29;63.81;101014.41;4957048;29;19932;-86
2022/01/06 00:59:08;;;;;;;;;;;;;;;5.20;64.34;101013.00;4957290;29;19938;-86
2022/01/06 01:01:33;;;;;;;;;;;;;;;5.13;63.24;101007.19;4955828;29;20170;-86
2022/01/06 01:03:59;;;;;;;;;;;;;;;5.29;63.87;101009.22;4957228;29;19932;-86
2022/01/06 01:06:24;;;;;;;;;;;;;;;5.24;63.43;101005.94;4957122;29;19936;-85
2022/01/06 01:08:49;;;;;;;;;;;;;;;5.27;63.87;101005.81;4955264;29;19938;-86
2022/01/06 01:11:15;;;;;;;;;;;;;;;5.24;62.80;101000.75;4955829;29;20288;-86
2022/01/06 01:13:54;;;;;;;;;;;;;;;5.25;63.66;101000.69;4957208;29;19950;-85
2022/01/06 01:16:24;;;;;;;;;;;;;;;5.06;63.54;100995.28;4956788;29;19933;-85
2022/01/06 01:18:50;;;;;;;;;;;;;;;5.00;64.21;101002.47;4956857;29;20051;-85
2022/01/06 01:21:16;;;;;;;;;;;;;;;5.09;64.03;101004.72;4956600;29;20020;-86
2022/01/06 01:23:41;;;;;;;;;;;;;;;5.10;63.22;100994.28;4950713;29;19974;-86
2022/01/06 01:26:07;;;;;;;;;;;;;;;5.20;64.25;100996.56;4937338;29;19980;-85
2022/01/06 01:28:42;;;;;;;;;;;;;;;5.24;63.93;100998.13;4937438;29;19936;-85
2022/01/06 01:33:38;;;;;;;;;;;;;;;5.15;64.09;100989.75;4937280;29;19939;-86
2022/01/06 01:36:04;;;;;;;;;;;;;;;5.19;64.10;100992.22;4937239;29;20312;-86
2022/01/06 01:38:29;;;;;;;;;;;;;;;5.07;63.26;100983.94;4935053;29;20483;-85
2022/01/06 01:40:55;;;;;;;;;;;;;;;5.04;63.74;100980.63;4937999;29;20454;-85
2022/01/06 01:43:20;;;;;;;;;;;;;;;5.08;63.08;100990.88;4937131;29;19963;-86
2022/01/06 01:45:46;;;;;;;;;;;;;;;5.14;64.30;100993.25;4936925;29;20225;-87
2022/01/06 01:48:20;;;;;;;;;;;;;;;5.22;64.72;100984.31;4936133;29;20029;-86
2022/01/06 01:50:45;;;;;;;;;;;;;;;5.12;63.98;100989.84;4937085;29;20313;-86
2022/01/06 01:53:11;;;;;;;;;;;;;;;5.10;64.43;100989.06;4938491;29;20433;-86
2022/01/06 01:55:37;;;;;;;;;;;;;;;5.19;64.21;100994.84;4943537;29;19943;-86
2022/01/06 01:58:02;;;;;;;;;;;;;;;5.16;63.99;100991.44;4936717;29;19965;-86
2022/01/06 02:00:28;;;;;;;;;;;;;;;4.91;63.03;100986.25;4936889;29;19932;-86
2022/01/06 02:02:54;;;;;;;;;;;;;;;4.93;64.21;100994.00;4936721;29;20037;-86
2022/01/06 02:05:25;;;;;;;;;;;;;;;4.97;63.96;100998.19;4936856;29;19977;-86
2022/01/06 02:07:50;;;;;;;;;;;;;;;4.93;63.71;100999.22;4936932;29;20007;-87
2022/01/06 02:10:16;;;;;;;;;;;;;;;5.02;64.50;100998.06;4940508;29;20354;-85
2022/01/06 02:12:42;;;;;;;;;;;;;;;5.01;63.71;100991.97;4956089;29;19993;-86
2022/01/06 02:15:09;;;;;;;;;;;;;;;4.91;63.37;101004.47;4955501;29;20275;-86
2022/01/06 02:17:36;;;;;;;;;;;;;;;4.99;63.36;101003.34;4955680;29;20012;-85
2022/01/06 02:20:03;;;;;;;;;;;;;;;5.07;63.44;100996.13;4955551;29;19943;-86
2022/01/06 02:22:28;;;;;;;;;;;;;;;5.12;64.13;101000.28;4954285;29;19946;-85
2022/01/06 02:24:54;;;;;;;;;;;;;;;5.23;64.40;101001.63;4936202;29;20310;-85
2022/01/06 02:27:20;;;;;;;;;;;;;;;5.30;64.43;101003.13;4936637;29;19931;-85
2022/01/06 02:29:49;;;;;;;;;;;;;;;5.34;64.76;101004.69;4940427;29;19939;-84
2022/01/06 02:32:16;;;;;;;;;;;;;;;5.40;64.70;101001.88;4940716;29;19964;-85
2022/01/06 02:34:42;;;;;;;;;;;;;;;5.42;64.09;101005.25;4940791;29;20010;-85
2022/01/06 02:37:08;;;;;;;;;;;;;;;5.41;64.57;100995.78;4939846;29;20016;-85
2022/01/06 02:39:33;;;;;;;;;;;;;;;5.49;64.98;100998.94;4941569;29;19946;-85
2022/01/06 02:41:58;;;;;;;;;;;;;;;5.53;64.45;101000.50;4940103;29;20025;-86
2022/01/06 02:44:25;;;;;;;;;;;;;;;5.40;63.89;100996.66;4938034;29;19945;-85
2022/01/06 02:46:51;;;;;;;;;;;;;;;5.46;64.64;100992.97;4937635;29;20392;-86
2022/01/06 02:49:16;;;;;;;;;;;;;;;5.44;64.00;100990.44;4938839;29;20465;-85
2022/01/06 02:51:42;;;;;;;;;;;;;;;5.42;64.26;100992.25;4939443;29;19982;-85
2022/01/06 02:54:07;;;;;;;;;;;;;;;5.15;63.56;100988.88;4951295;29;20395;-86
2022/01/06 02:56:33;;;;;;;;;;;;;;;5.28;64.91;100986.69;4958680;29;19987;-85
2022/01/06 02:58:58;;;;;;;;;;;;;;;5.40;64.75;100988.00;4958325;29;19933;-85
2022/01/06 03:01:23;;;;;;;;;;;;;;;5.42;64.64;100991.41;4959036;29;19931;-84
2022/01/06 03:03:48;;;;;;;;;;;;;;;5.57;64.80;100983.84;4957747;29;19942;-85
2022/01/06 03:06:14;;;;;;;;;;;;;;;5.62;64.60;100988.03;4957489;29;20355;-85
2022/01/06 03:08:39;;;;;;;;;;;;;;;5.68;64.80;100983.44;4946421;29;20055;-85
2022/01/06 03:11:06;;;;;;;;;;;;;;;5.73;64.94;100971.09;4936950;29;19937;-86
2022/01/06 03:13:32;;;;;;;;;;;;;;;5.66;63.50;100972.22;4937009;29;19962;-86
2022/01/06 03:15:57;;;;;;;;;;;;;;;5.64;64.47;100976.66;4937284;29;19940;-85
2022/01/06 03:18:23;;;;;;;;;;;;;;;5.70;64.07;100963.38;4937694;29;19957;-86
2022/01/06 03:20:48;;;;;;;;;;;;;;;5.76;63.91;100960.53;4936585;29;19978;-86
2022/01/06 03:23:13;;;;;;;;;;;;;;;5.69;64.26;100958.25;4945718;29;20218;-86
2022/01/06 03:25:38;;;;;;;;;;;;;;;5.68;64.85;100964.34;4955122;29;19941;-86
2022/01/06 03:28:04;;;;;;;;;;;;;;;5.76;64.90;100965.75;4955667;29;19945;-86
2022/01/06 03:30:29;;;;;;;;;;;;;;;5.74;64.02;100956.31;4955096;29;19931;-86
2022/01/06 03:32:54;;;;;;;;;;;;;;;5.76;63.88;100944.06;4955530;29;20434;-86
2022/01/06 03:35:22;;;;;;;;;;;;;;;5.80;64.21;100944.78;4955504;29;20370;-86
2022/01/06 03:37:47;;;;;;;;;;;;;;;5.79;64.06;100943.13;4945725;28;20446;-86
2022/01/06 03:40:12;;;;;;;;;;;;;;;5.81;63.91;100931.72;4936038;29;19935;-86
2022/01/06 03:42:38;;;;;;;;;;;;;;;5.76;64.40;100938.84;4935605;29;19965;-86
2022/01/06 03:45:05;;;;;;;;;;;;;;;5.88;64.10;100942.72;4935972;29;19936;-86
2022/01/06 03:47:30;;;;;;;;;;;;;;;5.93;64.62;100939.03;4969583;28;19932;-86
2022/01/06 03:49:55;;;;;;;;;;;;;;;5.93;64.43;100936.44;4972684;28;19936;-86
2022/01/06 03:52:21;;;;;;;;;;;;;;;6.07;65.37;100937.66;4964375;28;20510;-86
2022/01/06 03:54:46;;;;;;;;;;;;;;;6.17;64.97;100936.38;4953164;28;19934;-86
2022/01/06 03:57:11;;;;;;;;;;;;;;;6.24;64.50;100942.16;4934933;28;20008;-86
2022/01/06 03:59:37;;;;;;;;;;;;;;;6.26;64.14;100932.53;4934091;29;19943;-85
2022/01/06 04:02:03;;;;;;;;;;;;;;;6.27;64.63;100926.41;4938343;28;19961;-85
2022/01/06 04:04:28;;;;;;;;;;;;;;;6.35;64.83;100926.94;4939423;29;20438;-86
2022/01/06 04:06:53;;;;;;;;;;;;;;;6.41;64.83;100923.22;4939598;29;19947;-85
2022/01/06 04:09:18;;;;;;;;;;;;;;;6.47;65.14;100921.19;4939459;29;20021;-85
2022/01/06 04:11:44;;;;;;;;;;;;;;;6.49;64.56;100914.16;4939365;29;20322;-85
2022/01/06 04:14:09;;;;;;;;;;;;;;;6.47;64.21;100915.13;4939458;29;19983;-84
2022/01/06 04:16:36;;;;;;;;;;;;;;;6.58;64.23;100912.91;4939785;29;19943;-86
2022/01/06 04:19:02;;;;;;;;;;;;;;;6.59;64.36;100904.16;4939271;29;19935;-85
2022/01/06 04:21:28;;;;;;;;;;;;;;;6.62;64.12;100909.25;4938878;29;19984;-85
2022/01/06 04:23:53;;;;;;;;;;;;;;;6.53;63.97;100891.38;4939094;29;19937;-85
2022/01/06 04:26:19;;;;;;;;;;;;;;;6.49;65.05;100889.81;4938823;29;19947;-85
2022/01/06 04:28:44;;;;;;;;;;;;;;;6.63;64.77;100895.28;4938711;29;19934;-86
2022/01/06 04:31:10;;;;;;;;;;;;;;;6.67;63.25;100909.06;4942101;29;19945;-86
2022/01/06 04:33:35;;;;;;;;;;;;;;;6.73;64.19;100906.16;4957689;29;19982;-85
2022/01/06 04:36:01;;;;;;;;;;;;;;;6.79;63.82;100878.97;4957629;29;20348;-85
2022/01/06 04:38:27;;;;;;;;;;;;;;;6.85;63.07;100884.78;4957758;29;19950;-85
2022/01/06 04:40:52;;;;;;;;;;;;;;;6.86;63.54;100885.63;4957683;29;20040;-85
2022/01/06 04:43:18;;;;;;;;;;;;;;;6.90;63.82;100881.94;4957420;29;20354;-85
2022/01/06 04:45:43;;;;;;;;;;;;;;;6.92;63.38;100872.28;4955627;29;19942;-86
2022/01/06 04:48:09;;;;;;;;;;;;;;;6.92;63.48;100862.69;4938527;29;19933;-86
2022/01/06 04:50:34;;;;;;;;;;;;;;;6.93;62.89;100869.59;4938521;29;20415;-86
2022/01/06 04:52:59;;;;;;;;;;;;;;;6.92;63.56;100880.13;4938592;29;19953;-86
2022/01/06 04:55:24;;;;;;;;;;;;;;;6.92;62.80;100882.72;4938943;29;20030;-86
2022/01/06 04:57:50;;;;;;;;;;;;;;;6.90;63.06;100882.78;4938328;29;19956;-86
2022/01/06 05:00:15;;;;;;;;;;;;;;;6.86;62.48;100876.00;4938389;29;19942;-85
2022/01/06 05:02:40;;;;;;;;;;;;;;;6.89;62.80;100875.88;4940267;29;19957;-86
2022/01/06 05:05:06;;;;;;;;;;;;;;;6.94;63.15;100873.06;4938275;29;20016;-86
2022/01/06 05:07:32;;;;;;;;;;;;;;;7.00;62.86;100879.75;4938498;29;19944;-86
2022/01/06 05:09:57;;;;;;;;;;;;;;;7.01;63.80;100878.84;4938555;29;20398;-86
2022/01/06 05:12:23;;;;;;;;;;;;;;;7.04;63.64;100876.09;4937896;29;20004;-86
2022/01/06 05:14:48;;;;;;;;;;;;;;;7.10;63.50;100873.19;4937247;29;20317;-86
2022/01/06 05:17:13;;;;;;;;;;;;;;;7.18;63.00;100873.69;4950256;29;20019;-85
2022/01/06 05:19:38;;;;;;;;;;;;;;;7.19;62.77;100871.91;4957378;29;19977;-86
2022/01/06 05:22:04;;;;;;;;;;;;;;;7.17;62.80;100872.00;4957009;29;19949;-86
2022/01/06 05:24:29;;;;;;;;;;;;;;;7.21;63.40;100875.31;4957051;29;19934;-86
2022/01/06 05:26:56;;;;;;;;;;;;;;;7.26;62.93;100873.34;4957016;29;19980;-86
2022/01/06 05:29:21;;;;;;;;;;;;;;;7.27;62.68;100875.88;4955693;29;19942;-86
2022/01/06 05:31:47;;;;;;;;;;;;;;;7.29;63.05;100870.59;4955265;29;20328;-86
2022/01/06 05:34:12;;;;;;;;;;;;;;;7.32;63.03;100867.81;4941285;29;19969;-86
2022/01/06 05:36:38;;;;;;;;;;;;;;;7.39;62.66;100866.63;4937689;29;19932;-86
2022/01/06 05:39:03;;;;;;;;;;;;;;;7.24;62.38;100870.78;4938111;29;20028;-86
2022/01/06 05:41:28;;;;;;;;;;;;;;;7.14;63.27;100870.38;4937348;29;20372;-86
2022/01/06 05:43:54;;;;;;;;;;;;;;;7.18;62.44;100873.69;4937756;29;19996;-86
2022/01/06 05:46:19;;;;;;;;;;;;;;;7.24;63.35;100869.94;4942298;29;19941;-86
2022/01/06 05:48:45;;;;;;;;;;;;;;;7.28;61.89;100861.88;4956460;29;20389;-86
2022/01/06 05:51:10;;;;;;;;;;;;;;;7.29;62.33;100867.97;4955091;29;20068;-86
2022/01/06 05:53:36;;;;;;;;;;;;;;;7.14;62.42;100865.16;4956807;29;20312;-86
2022/01/06 05:56:01;;;;;;;;;;;;;;;7.15;63.24;100864.25;4956432;29;20357;-86
2022/01/06 05:58:26;;;;;;;;;;;;;;;7.02;61.96;100854.44;4956604;29;19952;-85
2022/01/06 06:00:51;;;;;;;;;;;;;;;7.10;61.88;100865.38;4940603;29;20045;-85
2022/01/06 06:03:17;;;;;;;;;;;;;;;7.07;62.20;100868.09;4937341;29;19948;-86
2022/01/06 06:05:42;;;;;;;;;;;;;;;7.21;61.87;100864.84;4936291;29;19935;-85
2022/01/06 06:08:08;;;;;;;;;;;;;;;7.24;62.43;100867.34;4937130;29;19943;-85
2022/01/06 06:10:34;;;;;;;;;;;;;;;7.21;62.63;100868.34;4937090;29;20069;-85
2022/01/06 06:12:59;;;;;;;;;;;;;;;7.23;62.76;100863.06;4937247;29;20334;-86
2022/01/06 06:15:24;;;;;;;;;;;;;;;7.18;61.65;100860.63;4946286;29;19946;-85
2022/01/06 06:17:49;;;;;;;;;;;;;;;7.20;62.57;100860.56;4954803;29;20000;-86
2022/01/06 06:20:15;;;;;;;;;;;;;;;7.27;62.15;100854.16;4955803;29;19932;-86
2022/01/06 06:22:40;;;;;;;;;;;;;;;7.14;63.22;100854.69;4956199;29;19958;-86
2022/01/06 06:25:06;;;;;;;;;;;;;;;7.22;62.41;100863.94;4955737;28;20327;-86
2022/01/06 06:27:31;;;;;;;;;;;;;;;7.35;62.48;100859.84;4955913;29;19936;-86
2022/01/06 06:29:56;;;;;;;;;;;;;;;7.39;61.99;100864.00;4950994;29;20388;-86
2022/01/06 06:32:21;;;;;;;;;;;;;;;7.48;62.37;100858.34;4955719;29;20619;-86
2022/01/06 06:34:47;;;;;;;;;;;;;;;7.57;62.02;100861.44;4954289;29;19943;-85
2022/01/06 06:37:12;;;;;;;;;;;;;;;7.61;62.37;100863.00;4955746;28;20068;-85
2022/01/06 06:39:37;;;;;;;;;;;;;;;7.65;60.70;100854.91;4955979;29;20517;-85
2022/01/06 06:42:03;;;;;;;;;;;;;;;7.47;61.50;100854.03;4954234;28;19968;-85
2022/01/06 06:44:28;;;;;;;;;;;;;;;7.35;62.08;100841.56;4952112;29;19938;-85
2022/01/06 06:46:53;;;;;;;;;;;;;;;7.58;60.70;100844.84;4936265;29;19988;-85
2022/01/06 06:49:19;;;;;;;;;;;;;;;7.67;59.91;100842.63;4936068;29;19936;-85
2022/01/06 06:51:44;;;;;;;;;;;;;;;7.74;59.49;100844.03;4936624;29;20038;-87
2022/01/06 06:54:09;;;;;;;;;;;;;;;7.68;60.61;100843.47;4935924;29;20175;-86
2022/01/06 06:56:34;;;;;;;;;;;;;;;7.63;60.59;100851.53;4936058;29;20029;-86
2022/01/06 06:59:00;;;;;;;;;;;;;;;7.57;60.70;100846.59;4936354;29;19956;-86
2022/01/06 07:01:25;;;;;;;;;;;;;;;7.49;61.53;100839.13;4936980;29;20405;-86
2022/01/06 07:03:50;;;;;;;;;;;;;;;7.59;60.54;100844.75;4935996;29;19981;-86
2022/01/06 07:06:15;;;;;;;;;;;;;;;7.56;61.13;100844.91;4934674;29;19941;-86
2022/01/06 07:08:40;;;;;;;;;;;;;;;7.49;60.80;100833.91;4936017;29;19988;-86
2022/01/06 07:11:06;;;;;;;;;;;;;;;7.31;61.09;100826.97;4935967;29;20324;-87
2022/01/06 07:13:31;;;;;;;;;;;;;;;7.47;60.90;100827.91;4936105;29;19975;-86
2022/01/06 07:15:56;;;;;;;;;;;;;;;7.55;60.54;100825.78;4949418;29;20324;-86
2022/01/06 07:18:22;;;;;;;;;;;;;;;7.52;58.58;100831.16;4955001;29;19959;-86
2022/01/06 07:20:47;;;;;;;;;;;;;;;7.53;58.42;100816.31;4954993;29;19935;-87
2022/01/06 07:23:12;;;;;;;;;;;;;;;7.42;59.83;100821.22;4955084;29;19960;-86
2022/01/06 07:25:37;;;;;;;;;;;;;;;7.42;60.06;100811.59;4953608;29;19942;-87
2022/01/06 07:28:03;;;;;;;;;;;;;;;7.40;59.95;100818.66;4955096;29;20432;-86
2022/01/06 07:30:30;;;;;;;;;;;;;;;7.34;60.06;100818.97;4942827;29;19941;-86
2022/01/06 07:32:55;;;;;;;;;;;;;;;7.24;61.05;100818.56;4935290;29;19950;-85
2022/01/06 07:35:21;;;;;;;;;;;;;;;7.23;59.66;100816.03;4935522;29;19946;-86
2022/01/06 07:37:47;;;;;;;;;;;;;;;7.20;59.69;100810.94;4938341;29;20329;-86
2022/01/06 07:40:13;;;;;;;;;;;;;;;7.19;59.72;100811.84;4939632;29;19935;-86
2022/01/06 07:42:39;;;;;;;;;;;;;;;7.08;60.09;100805.38;4939187;29;20072;-86
2022/01/06 07:45:04;;;;;;;;;;;;;;;7.07;60.58;100795.88;4948831;29;20538;-86
2022/01/06 07:47:32;;;;;;;;;;;;;;;7.01;59.07;100804.00;4958745;29;19968;-85
2022/01/06 07:49:58;;;;;;;;;;;;;;;7.04;60.88;100793.38;4959922;28;19994;-85
2022/01/06 07:52:23;;;;;;;;;;;;;;;7.00;60.37;100786.63;4943348;28;19957;-85
2022/01/06 07:54:48;;;;;;;;;;;;;;;6.95;60.10;100786.84;4942449;29;19938;-89
2022/01/06 07:57:14;;;;;;;;;;;;;;;6.91;60.92;100785.28;4970989;28;19957;-86
2022/01/06 07:59:40;;;;;;;;;;;;;;;6.87;60.61;100773.31;4946155;28;19991;-87
2022/01/06 08:02:05;;;;;;;;;;;;;;;6.87;59.75;100782.88;4948152;29;19985;-85
2022/01/06 08:04:30;;;;;;;;;;;;;;;6.73;60.68;100773.94;4958956;29;19943;-84
2022/01/06 08:06:55;;;;;;;;;;;;;;;6.72;60.05;100769.63;4955081;28;19937;-84
2022/01/06 08:09:21;;;;;;;;;;;;;;;6.53;60.60;100776.59;4946855;29;19943;-83
2022/01/06 08:11:46;;;;;;;;;;;;;;;6.48;60.24;100768.16;4938661;29;20308;-87
2022/01/06 08:14:11;;;;;;;;;;;;;;;6.47;60.10;100761.22;4948732;29;19941;-84
2022/01/06 08:16:37;;;;;;;;;;;;;;;6.50;61.21;100761.09;4949779;28;20047;-85
2022/01/06 08:19:02;;;;;;;;;;;;;;;6.49;61.00;100759.41;4955893;29;19958;-85
2022/01/06 08:21:27;;;;;;;;;;;;;;;6.50;61.34;100751.50;4955992;29;19992;-85
2022/01/06 08:23:52;;;;;;;;;;;;;;;6.53;61.90;100753.97;4943110;29;19949;-85
2022/01/06 08:26:18;;;;;;;;;;;;;;;6.54;61.28;100749.59;4950692;28;20315;-87
2022/01/06 08:28:46;;;;;;;;;;;;;;;6.45;60.59;100752.63;4949789;29;20038;-85
2022/01/06 08:31:13;;;;;;;;;;;;;;;6.58;61.83;100755.53;4955958;29;19943;-85
2022/01/06 08:33:38;;;;;;;;;;;;;;;6.71;61.79;100762.72;4945148;28;19952;-85
2022/01/06 08:36:03;;;;;;;;;;;;;;;6.87;62.28;100746.34;4942995;29;20042;-85
2022/01/06 08:38:29;;;;;;;;;;;;;;;6.75;61.04;100742.53;4938337;29;20008;-85
2022/01/06 08:40:54;;;;;;;;;;;;;;;6.95;61.06;100745.06;4956425;29;20010;-85
2022/01/06 08:43:20;;;;;;;;;;;;;;;7.09;60.08;100731.34;4946230;29;19962;-85
2022/01/06 08:45:45;;;;;;;;;;;;;;;7.27;60.77;100723.56;4939009;29;19997;-85
2022/01/06 08:48:10;;;;;;;;;;;;;;;7.34;59.17;100719.69;4949730;28;20330;-85
2022/01/06 08:50:36;;;;;;;;;;;;;;;7.54;60.63;100722.19;4957309;29;20028;-85
2022/01/06 08:53:01;;;;;;;;;;;;;;;7.69;60.11;100720.53;4957125;29;20020;-85
2022/01/06 08:55:27;;;;;;;;;;;;;;;7.81;59.99;100719.06;4956806;29;19933;-85
2022/01/06 08:57:53;;;;;;;;;;;;;;;7.93;59.96;100704.53;4956818;29;19967;-85
2022/01/06 09:00:18;;;;;;;;;;;;;;;8.10;60.58;100701.03;4956680;29;19970;-85
2022/01/06 09:02:44;;;;;;;;;;;;;;;8.22;60.13;100703.00;4954854;29;19970;-84
2022/01/06 09:05:10;;;;;;;;;;;;;;;8.24;60.55;100700.31;4956179;28;19944;-84
2022/01/06 09:07:35;;;;;;;;;;;;;;;8.25;58.73;100681.88;4937345;29;19948;-84
2022/01/06 09:10:01;;;;;;;;;;;;;;;8.27;58.64;100687.91;4941118;29;20323;-84
2022/01/06 09:12:26;;;;;;;;;;;;;;;8.42;59.42;100680.19;4947845;29;20458;-84
2022/01/06 09:14:51;;;;;;;;;;;;;;;8.45;58.78;100685.22;4946058;29;19958;-84
2022/01/06 09:17:17;;;;;;;;;;;;;;;8.32;57.84;100675.41;4940698;29;19999;-84
2022/01/06 09:19:42;;;;;;;;;;;;;;;8.34;58.06;100684.00;4955879;28;19943;-84
2022/01/06 09:22:08;;;;;;;;;;;;;;;8.27;56.72;100680.06;4948614;29;20321;-84
2022/01/06 09:24:33;;;;;;;;;;;;;;;8.41;57.48;100681.06;4937273;29;19940;-85
2022/01/06 09:26:59;;;;;;;;;;;;;;;8.37;56.77;100675.16;4937144;29;20418;-85
2022/01/06 09:29:24;;;;;;;;;;;;;;;8.46;57.05;100663.38;4946051;29;19949;-85
2022/01/06 09:31:49;;;;;;;;;;;;;;;8.56;57.33;100671.56;4956048;29;20391;-85
2022/01/06 09:34:14;;;;;;;;;;;;;;;8.58;56.47;100662.69;4955408;29;19942;-85
2022/01/06 09:36:40;;;;;;;;;;;;;;;8.69;56.35;100664.72;4956043;29;19983;-85
2022/01/06 09:39:07;;;;;;;;;;;;;;;8.60;55.96;100660.84;4953599;29;19961;-85
2022/01/06 09:41:32;;;;;;;;;;;;;;;8.66;56.27;100650.03;4954944;29;20352;-85
2022/01/06 09:44:00;;;;;;;;;;;;;;;8.69;55.50;100642.00;4944751;29;19945;-85
2022/01/06 09:46:26;;;;;;;;;;;;;;;8.53;56.06;100638.53;4937674;29;20453;-85
2022/01/06 09:48:57;;;;;;;;;;;;;;;8.51;56.39;100624.69;4944529;29;20023;-85
2022/01/06 09:51:22;;;;;;;;;;;;;;;8.48;56.13;100622.28;4940450;28;19947;-85
2022/01/06 09:53:48;;;;;;;;;;;;;;;8.38;55.85;100611.44;4936446;29;20024;-85
2022/01/06 09:56:14;;;;;;;;;;;;;;;8.52;55.03;100611.53;4945155;29;19945;-85
2022/01/06 09:58:39;;;;;;;;;;;;;;;8.61;54.27;100614.56;4955584;28;19964;-85
2022/01/06 10:01:04;;;;;;;;;;;;;;;8.55;54.64;100618.38;4941444;29;20045;-85
2022/01/06 10:03:41;;;;;;;;;;;;;;;8.40;55.88;100616.59;4937449;29;19970;-85
2022/01/06 10:06:10;;;;;;;;;;;;;;;8.47;54.96;100617.94;4936296;29;20466;-85
2022/01/06 10:08:35;;;;;;;;;;;;;;;8.47;54.99;100618.81;4936300;29;19955;-85
2022/01/06 10:11:07;;;;;;;;;;;;;;;8.24;55.22;100612.19;4937247;29;19960;-85
2022/01/06 10:13:33;;;;;;;;;;;;;;;8.06;55.44;100613.22;4946579;29;19966;-86
2022/01/06 10:15:58;;;;;;;;;;;;;;;8.17;55.63;100616.06;4936258;29;20294;-85
2022/01/06 10:18:23;;;;;;;;;;;;;;;8.34;56.02;100604.69;4954236;28;19961;-85
2022/01/06 10:20:52;;;;;;;;;;;;;;;8.27;55.75;100588.50;4955143;29;19943;-86
2022/01/06 10:23:17;;;;;;;;;;;;;;;8.28;55.86;100586.72;4954498;29;20429;-85
2022/01/06 10:25:49;;;;;;;;;;;;;;;8.26;55.82;100584.19;4953968;29;19978;-85
2022/01/06 10:28:22;;;;;;;;;;;;;;;8.08;56.27;100574.75;4936113;29;19992;-85
2022/01/06 10:30:48;;;;;;;;;;;;;;;8.38;56.36;100566.13;4942882;29;19986;-85
2022/01/06 10:33:17;;;;;;;;;;;;;;;8.38;55.86;100568.75;4944287;29;19959;-85
2022/01/06 10:35:43;;;;;;;;;;;;;;;8.59;55.37;100558.84;4954981;29;19933;-85
2022/01/06 10:38:08;;;;;;;;;;;;;;;8.60;55.75;100555.31;4939445;29;19970;-85
2022/01/06 10:40:33;;;;;;;;;;;;;;;8.44;55.53;100537.03;4961287;28;19949;-85
2022/01/06 10:42:58;;;;;;;;;;;;;;;8.55;55.08;100526.78;4973680;28;20347;-85
2022/01/06 10:45:26;;;;;;;;;;;;;;;8.53;54.91;100518.16;4939799;28;19950;-85
2022/01/06 10:47:52;;;;;;;;;;;;;;;8.49;56.19;100529.72;4935485;29;19941;-85
2022/01/06 10:50:22;;;;;;;;;;;;;;;8.59;55.90;100517.81;4950625;29;20400;-85
2022/01/06 10:52:48;;;;;;;;;;;;;;;8.74;55.16;100516.06;4954055;29;20394;-84
2022/01/06 10:55:13;;;;;;;;;;;;;;;8.80;55.59;100514.88;4954676;29;19986;-85
2022/01/06 10:57:49;;;;;;;;;;;;;;;8.88;55.91;100497.78;4945689;29;20078;-85
2022/01/06 11:00:18;;;;;;;;;;;;;;;8.96;54.96;100510.41;4938737;29;20375;-85
2022/01/06 11:02:43;;;;;;;;;;;;;;;8.86;56.20;100511.91;4949202;29;19966;-85
2022/01/06 11:05:08;;;;;;;;;;;;;;;9.02;54.45;100515.28;4954369;29;19947;-85
2022/01/06 11:07:34;;;;;;;;;;;;;;;9.13;54.15;100510.25;4954445;29;20460;-85
2022/01/06 11:09:59;;;;;;;;;;;;;;;9.19;55.31;100508.22;4954440;28;19952;-85
2022/01/06 11:12:30;;;;;;;;;;;;;;;9.12;55.68;100505.97;4953622;28;20305;-85
2022/01/06 11:14:56;;;;;;;;;;;;;;;9.23;55.53;100491.38;4943530;29;20316;-85
2022/01/06 11:17:23;;;;;;;;;;;;;;;9.22;54.21;100484.44;4944882;28;20043;-85
2022/01/06 11:19:49;;;;;;;;;;;;;;;9.29;55.22;100485.75;4937496;29;20417;-85
2022/01/06 11:22:15;;;;;;;;;;;;;;;9.34;54.75;100478.47;4935285;29;19952;-85
2022/01/06 11:24:50;;;;;;;;;;;;;;;9.35;54.92;100490.59;4953087;29;19949;-85
2022/01/06 11:27:16;;;;;;;;;;;;;;;9.41;55.67;100492.00;4953978;29;20304;-85
2022/01/06 11:29:42;;;;;;;;;;;;;;;9.42;54.27;100491.06;4942884;29;19943;-85
2022/01/06 11:32:20;;;;;;;;;;;;;;;9.47;54.91;100489.84;4954129;29;19957;-85
2022/01/06 11:34:49;;;;;;;;;;;;;;;9.41;55.44;100484.97;4935175;29;19944;-85
2022/01/06 11:37:16;;;;;;;8.40;2.28;;;;;;;9.30;57.04;100472.56;4937458;29;20441;-85
2022/01/06 11:39:42;;;;;;;6.85;2.15;;;;;;;9.33;56.73;100472.34;4934697;29;20032;-85
2022/01/06 11:42:25;;;;;;;15.63;2.88;;;;;;;9.41;55.68;100466.63;4945599;29;20127;-85
2022/01/06 11:44:54;;;;;;;9.20;2.58;;;;;;;9.36;56.61;100455.63;4952233;28;20134;-85
2022/01/06 11:47:37;;;;;;;34.22;4.00;;;;;;;9.63;55.83;100457.44;4942011;28;20550;-85
2022/01/06 11:50:24;;;;;;;57.85;18.48;;;;;;;9.62;56.17;100455.75;4934444;29;20039;-84
2022/01/06 11:52:58;;;;;;;9.38;2.00;;;;;;;9.52;56.52;100450.25;4944530;29;20359;-84
2022/01/06 11:55:29;;;;;;;14.52;2.85;;;;;;;9.57;56.36;100450.78;4940435;28;20091;-84
2022/01/06 11:57:54;;;;;;;11.98;2.13;;;;;;;9.71;56.34;100439.44;4935212;29;20106;-85
2022/01/06 12:00:26;;;;;;;20.20;2.33;;;;;;;9.84;56.10;100440.34;4952009;28;20122;-85
2022/01/06 12:03:04;;;;;;;7.47;1.85;;;;;;;9.91;56.83;100431.16;4952294;29;20082;-85
2022/01/06 12:05:42;;;;;;;8.27;1.80;;;;;;;9.87;57.62;100434.03;4950220;28;20054;-85
2022/01/06 12:08:07;;;;;;;11.23;1.67;;;;;;;10.04;56.66;100417.22;4934347;29;20087;-85
2022/01/06 12:10:44;;;;;;;10.50;2.08;;;;;;;10.08;56.87;100410.84;4938916;29;20027;-85
2022/01/06 12:13:11;;;;;;;14.93;1.85;;;;;;;10.13;56.84;100404.34;4953312;29;20389;-85
2022/01/06 12:15:48;;;;;;;7.97;2.08;;;;;;;10.24;56.87;100405.41;4953399;29;20031;-85
2022/01/06 12:18:25;;;;;;;10.80;1.58;;;;;;;10.16;57.10;100398.03;4953383;29;20035;-85
2022/01/06 12:20:52;;;;;;;31.20;9.48;;;;;;;10.37;56.40;100389.69;4947554;29;20111;-85
2022/01/06 12:23:19;;;;;;;5.28;1.27;;;;;;;10.19;58.01;100386.50;4945724;29;20031;-85
2022/01/06 12:25:59;;;;;;;5.47;1.17;;;;;;;10.30;57.73;100384.88;4938344;28;20031;-85
2022/01/06 12:28:26;;;;;;;6.57;2.78;;;;;;;10.23;58.64;100373.09;4937803;29;20082;-85
2022/01/06 12:30:57;;;;;;;10.90;1.73;;;;;;;9.97;60.01;100376.59;4940974;29;20034;-85
2022/01/06 12:33:22;;;;;;;13.32;1.17;;;;;;;10.03;59.90;100381.44;4956769;28;20073;-85
2022/01/06 12:35:53;;;;;;;11.73;1.60;;;;;;;10.02;60.57;100379.75;4955517;28;20031;-85
2022/01/06 12:38:28;;;;;;;9.10;1.05;;;;;;;10.07;61.67;100368.03;4956542;28;20107;-85
2022/01/06 12:40:55;;;;;;;187.32;141.50;;;;;;;10.28;61.72;100354.41;4953063;28;20028;-85
2022/01/06 12:43:29;;;;;;;232.57;115.85;;;;;;;9.97;61.70;100347.72;4959164;28;20391;-85
2022/01/06 12:46:04;;;;;;;2.25;0.52;;;;;;;10.08;62.50;100347.88;4956475;28;20051;-85